sensor_id;sensor_type;location;lat;lon;timestamp;P1;durP1;ratioP1;P2;durP2;ratioP2
10469;SDS011;5282;47.052;15.458;2022-10-16T00:00:36;49.37;;;41.20;;
10469;SDS011;5282;47.052;15.458;2022-10-16T00:03:04;50.43;;;42.17;;
10469;SDS011;5282;47.052;15.458;2022-10-16T00:05:31;51.97;;;41.47;;
10469;SDS011;5282;47.052;15.458;2022-10-16T00:07:59;49.40;;;40.53;;
10469;SDS011;5282;47.052;15.458;2022-10-16T00:10:28;49.30;;;40.70;;
10469;SDS011;5282;47.052;15.458;2022-10-16T00:12:55;49.97;;;41.37;;
10469;SDS011;5282;47.052;15.458;2022-10-16T00:15:22;47.73;;;38.60;;
10469;SDS011;5282;47.052;15.458;2022-10-16T00:17:49;46.23;;;39.33;;
10469;SDS011;5282;47.052;15.458;2022-10-16T00:20:16;47.80;;;40.27;;
10469;SDS011;5282;47.052;15.458;2022-10-16T00:22:43;46.37;;;40.17;;
10469;SDS011;5282;47.052;15.458;2022-10-16T00:25:11;46.63;;;40.27;;
10469;SDS011;5282;47.052;15.458;2022-10-16T00:27:37;49.27;;;40.13;;
10469;SDS011;5282;47.052;15.458;2022-10-16T00:30:05;49.00;;;39.83;;
10469;SDS011;5282;47.052;15.458;2022-10-16T00:32:33;51.43;;;41.83;;
10469;SDS011;5282;47.052;15.458;2022-10-16T00:35:00;47.27;;;40.40;;
10469;SDS011;5282;47.052;15.458;2022-10-16T00:37:29;48.20;;;40.47;;
10469;SDS011;5282;47.052;15.458;2022-10-16T00:39:58;51.73;;;40.80;;
10469;SDS011;5282;47.052;15.458;2022-10-16T00:42:26;47.50;;;40.67;;
10469;SDS011;5282;47.052;15.458;2022-10-16T00:44:54;48.63;;;40.60;;
10469;SDS011;5282;47.052;15.458;2022-10-16T00:47:24;44.93;;;39.50;;
10469;SDS011;5282;47.052;15.458;2022-10-16T00:49:55;47.47;;;39.10;;
10469;SDS011;5282;47.052;15.458;2022-10-16T00:52:25;46.53;;;39.03;;
10469;SDS011;5282;47.052;15.458;2022-10-16T00:54:52;46.83;;;39.43;;
10469;SDS011;5282;47.052;15.458;2022-10-16T00:57:20;52.03;;;40.53;;
10469;SDS011;5282;47.052;15.458;2022-10-16T00:59:51;52.87;;;41.00;;
10469;SDS011;5282;47.052;15.458;2022-10-16T01:02:18;47.67;;;40.20;;
10469;SDS011;5282;47.052;15.458;2022-10-16T01:04:54;46.97;;;38.43;;
10469;SDS011;5282;47.052;15.458;2022-10-16T01:07:27;48.07;;;39.67;;
10469;SDS011;5282;47.052;15.458;2022-10-16T01:10:06;49.83;;;38.33;;
10469;SDS011;5282;47.052;15.458;2022-10-16T01:12:44;49.47;;;38.63;;
10469;SDS011;5282;47.052;15.458;2022-10-16T01:15:20;46.70;;;38.60;;
10469;SDS011;5282;47.052;15.458;2022-10-16T01:17:53;43.63;;;36.83;;
10469;SDS011;5282;47.052;15.458;2022-10-16T01:20:27;47.83;;;37.43;;
10469;SDS011;5282;47.052;15.458;2022-10-16T01:23:01;47.13;;;37.97;;
10469;SDS011;5282;47.052;15.458;2022-10-16T01:25:36;44.67;;;36.20;;
10469;SDS011;5282;47.052;15.458;2022-10-16T01:28:17;44.20;;;37.53;;
10469;SDS011;5282;47.052;15.458;2022-10-16T01:30:48;44.57;;;36.77;;
10469;SDS011;5282;47.052;15.458;2022-10-16T01:33:20;42.10;;;35.43;;
10469;SDS011;5282;47.052;15.458;2022-10-16T01:35:52;43.07;;;36.77;;
10469;SDS011;5282;47.052;15.458;2022-10-16T01:38:21;44.60;;;37.77;;
10469;SDS011;5282;47.052;15.458;2022-10-16T01:40:56;44.57;;;37.00;;
10469;SDS011;5282;47.052;15.458;2022-10-16T01:43:30;42.47;;;36.00;;
10469;SDS011;5282;47.052;15.458;2022-10-16T01:46:02;43.77;;;36.10;;
10469;SDS011;5282;47.052;15.458;2022-10-16T01:48:29;43.33;;;36.60;;
10469;SDS011;5282;47.052;15.458;2022-10-16T01:51:00;45.57;;;36.27;;
10469;SDS011;5282;47.052;15.458;2022-10-16T01:53:31;40.03;;;34.47;;
10469;SDS011;5282;47.052;15.458;2022-10-16T01:55:59;43.33;;;36.60;;
10469;SDS011;5282;47.052;15.458;2022-10-16T01:58:30;48.73;;;37.93;;
10469;SDS011;5282;47.052;15.458;2022-10-16T02:01:01;44.33;;;36.67;;
10469;SDS011;5282;47.052;15.458;2022-10-16T02:03:31;49.03;;;36.63;;
10469;SDS011;5282;47.052;15.458;2022-10-16T02:06:00;41.93;;;36.07;;
10469;SDS011;5282;47.052;15.458;2022-10-16T02:08:28;45.87;;;35.80;;
10469;SDS011;5282;47.052;15.458;2022-10-16T02:10:56;43.90;;;36.37;;
10469;SDS011;5282;47.052;15.458;2022-10-16T02:13:26;48.00;;;39.20;;
10469;SDS011;5282;47.052;15.458;2022-10-16T02:15:59;47.43;;;37.97;;
10469;SDS011;5282;47.052;15.458;2022-10-16T02:18:28;42.57;;;35.83;;
10469;SDS011;5282;47.052;15.458;2022-10-16T02:20:57;45.40;;;37.50;;
10469;SDS011;5282;47.052;15.458;2022-10-16T02:23:30;46.80;;;37.70;;
10469;SDS011;5282;47.052;15.458;2022-10-16T02:26:05;49.23;;;38.67;;
10469;SDS011;5282;47.052;15.458;2022-10-16T02:28:37;47.87;;;38.27;;
10469;SDS011;5282;47.052;15.458;2022-10-16T02:31:09;51.40;;;38.87;;
10469;SDS011;5282;47.052;15.458;2022-10-16T02:33:40;49.20;;;39.37;;
10469;SDS011;5282;47.052;15.458;2022-10-16T02:36:10;47.17;;;39.97;;
10469;SDS011;5282;47.052;15.458;2022-10-16T02:38:37;50.50;;;40.17;;
10469;SDS011;5282;47.052;15.458;2022-10-16T02:41:06;51.80;;;40.90;;
10469;SDS011;5282;47.052;15.458;2022-10-16T02:43:33;53.87;;;40.43;;
10469;SDS011;5282;47.052;15.458;2022-10-16T02:46:00;55.63;;;40.73;;
10469;SDS011;5282;47.052;15.458;2022-10-16T02:48:28;54.27;;;41.70;;
10469;SDS011;5282;47.052;15.458;2022-10-16T02:50:55;54.43;;;40.83;;
10469;SDS011;5282;47.052;15.458;2022-10-16T02:53:22;53.13;;;41.30;;
10469;SDS011;5282;47.052;15.458;2022-10-16T02:55:49;50.27;;;41.13;;
10469;SDS011;5282;47.052;15.458;2022-10-16T02:58:16;51.27;;;40.90;;
10469;SDS011;5282;47.052;15.458;2022-10-16T03:00:43;50.70;;;40.47;;
10469;SDS011;5282;47.052;15.458;2022-10-16T03:03:10;56.73;;;42.00;;
10469;SDS011;5282;47.052;15.458;2022-10-16T03:05:38;54.00;;;40.30;;
10469;SDS011;5282;47.052;15.458;2022-10-16T03:08:05;50.73;;;40.40;;
10469;SDS011;5282;47.052;15.458;2022-10-16T03:10:32;52.60;;;39.00;;
10469;SDS011;5282;47.052;15.458;2022-10-16T03:12:58;51.20;;;39.37;;
10469;SDS011;5282;47.052;15.458;2022-10-16T03:15:25;54.90;;;39.90;;
10469;SDS011;5282;47.052;15.458;2022-10-16T03:17:53;49.13;;;39.13;;
10469;SDS011;5282;47.052;15.458;2022-10-16T03:20:20;52.77;;;39.47;;
10469;SDS011;5282;47.052;15.458;2022-10-16T03:22:48;56.53;;;39.50;;
10469;SDS011;5282;47.052;15.458;2022-10-16T03:25:15;51.07;;;38.90;;
10469;SDS011;5282;47.052;15.458;2022-10-16T03:27:44;57.70;;;39.97;;
10469;SDS011;5282;47.052;15.458;2022-10-16T03:30:11;48.43;;;39.30;;
10469;SDS011;5282;47.052;15.458;2022-10-16T03:32:38;57.70;;;41.83;;
10469;SDS011;5282;47.052;15.458;2022-10-16T03:35:05;54.60;;;40.80;;
10469;SDS011;5282;47.052;15.458;2022-10-16T03:37:33;51.67;;;39.67;;
10469;SDS011;5282;47.052;15.458;2022-10-16T03:40:01;52.30;;;40.07;;
10469;SDS011;5282;47.052;15.458;2022-10-16T03:42:28;54.60;;;40.67;;
10469;SDS011;5282;47.052;15.458;2022-10-16T03:44:55;56.87;;;40.60;;
10469;SDS011;5282;47.052;15.458;2022-10-16T03:47:22;53.30;;;40.97;;
10469;SDS011;5282;47.052;15.458;2022-10-16T03:49:49;54.97;;;41.50;;
10469;SDS011;5282;47.052;15.458;2022-10-16T03:52:16;54.30;;;41.17;;
10469;SDS011;5282;47.052;15.458;2022-10-16T03:54:43;56.67;;;41.93;;
10469;SDS011;5282;47.052;15.458;2022-10-16T03:57:11;52.03;;;40.83;;
10469;SDS011;5282;47.052;15.458;2022-10-16T03:59:38;52.80;;;40.30;;
10469;SDS011;5282;47.052;15.458;2022-10-16T04:02:05;51.67;;;40.40;;
10469;SDS011;5282;47.052;15.458;2022-10-16T04:04:31;54.30;;;39.60;;
10469;SDS011;5282;47.052;15.458;2022-10-16T04:06:58;55.83;;;41.43;;
10469;SDS011;5282;47.052;15.458;2022-10-16T04:09:25;53.93;;;40.00;;
10469;SDS011;5282;47.052;15.458;2022-10-16T04:11:52;48.80;;;38.77;;
10469;SDS011;5282;47.052;15.458;2022-10-16T04:14:20;52.40;;;39.20;;
10469;SDS011;5282;47.052;15.458;2022-10-16T04:16:47;50.27;;;39.47;;
10469;SDS011;5282;47.052;15.458;2022-10-16T04:19:14;50.03;;;39.73;;
10469;SDS011;5282;47.052;15.458;2022-10-16T04:21:43;58.37;;;39.90;;
10469;SDS011;5282;47.052;15.458;2022-10-16T04:24:10;57.73;;;40.97;;
10469;SDS011;5282;47.052;15.458;2022-10-16T04:26:37;52.33;;;39.47;;
10469;SDS011;5282;47.052;15.458;2022-10-16T04:29:06;52.53;;;39.40;;
10469;SDS011;5282;47.052;15.458;2022-10-16T04:31:34;53.97;;;39.93;;
10469;SDS011;5282;47.052;15.458;2022-10-16T04:34:01;54.20;;;41.50;;
10469;SDS011;5282;47.052;15.458;2022-10-16T04:36:28;52.90;;;38.97;;
10469;SDS011;5282;47.052;15.458;2022-10-16T04:38:55;50.80;;;39.10;;
10469;SDS011;5282;47.052;15.458;2022-10-16T04:41:24;51.57;;;40.50;;
10469;SDS011;5282;47.052;15.458;2022-10-16T04:43:51;49.27;;;38.10;;
10469;SDS011;5282;47.052;15.458;2022-10-16T04:46:18;46.80;;;37.87;;
10469;SDS011;5282;47.052;15.458;2022-10-16T04:48:46;48.20;;;38.03;;
10469;SDS011;5282;47.052;15.458;2022-10-16T04:51:13;47.77;;;38.30;;
10469;SDS011;5282;47.052;15.458;2022-10-16T04:53:39;48.90;;;38.70;;
10469;SDS011;5282;47.052;15.458;2022-10-16T04:56:06;51.10;;;39.50;;
10469;SDS011;5282;47.052;15.458;2022-10-16T04:58:33;47.57;;;38.70;;
10469;SDS011;5282;47.052;15.458;2022-10-16T05:01:00;49.87;;;37.73;;
10469;SDS011;5282;47.052;15.458;2022-10-16T05:03:27;47.77;;;37.47;;
10469;SDS011;5282;47.052;15.458;2022-10-16T05:05:55;50.77;;;37.83;;
10469;SDS011;5282;47.052;15.458;2022-10-16T05:08:22;44.63;;;37.37;;
10469;SDS011;5282;47.052;15.458;2022-10-16T05:10:49;41.00;;;35.73;;
10469;SDS011;5282;47.052;15.458;2022-10-16T05:13:17;41.60;;;34.93;;
10469;SDS011;5282;47.052;15.458;2022-10-16T05:15:46;39.10;;;34.47;;
10469;SDS011;5282;47.052;15.458;2022-10-16T05:18:13;37.13;;;33.13;;
10469;SDS011;5282;47.052;15.458;2022-10-16T05:20:40;37.50;;;33.53;;
10469;SDS011;5282;47.052;15.458;2022-10-16T05:23:08;46.10;;;32.20;;
10469;SDS011;5282;47.052;15.458;2022-10-16T05:25:37;36.10;;;32.07;;
10469;SDS011;5282;47.052;15.458;2022-10-16T05:28:04;37.40;;;32.50;;
10469;SDS011;5282;47.052;15.458;2022-10-16T05:30:31;42.67;;;32.20;;
10469;SDS011;5282;47.052;15.458;2022-10-16T05:32:57;38.63;;;33.33;;
10469;SDS011;5282;47.052;15.458;2022-10-16T05:35:24;36.60;;;31.43;;
10469;SDS011;5282;47.052;15.458;2022-10-16T05:37:52;34.40;;;31.00;;
10469;SDS011;5282;47.052;15.458;2022-10-16T05:40:20;34.47;;;30.93;;
10469;SDS011;5282;47.052;15.458;2022-10-16T05:42:47;34.03;;;30.57;;
10469;SDS011;5282;47.052;15.458;2022-10-16T05:45:14;40.33;;;32.67;;
10469;SDS011;5282;47.052;15.458;2022-10-16T05:47:41;39.37;;;32.83;;
10469;SDS011;5282;47.052;15.458;2022-10-16T05:50:08;57.10;;;33.70;;
10469;SDS011;5282;47.052;15.458;2022-10-16T05:52:35;36.97;;;32.50;;
10469;SDS011;5282;47.052;15.458;2022-10-16T05:55:02;38.53;;;33.23;;
10469;SDS011;5282;47.052;15.458;2022-10-16T05:57:31;50.40;;;34.07;;
10469;SDS011;5282;47.052;15.458;2022-10-16T05:59:57;116.00;;;34.07;;
10469;SDS011;5282;47.052;15.458;2022-10-16T06:02:24;104.37;;;33.27;;
10469;SDS011;5282;47.052;15.458;2022-10-16T06:04:51;100.07;;;33.60;;
10469;SDS011;5282;47.052;15.458;2022-10-16T06:07:19;45.87;;;32.43;;
10469;SDS011;5282;47.052;15.458;2022-10-16T06:09:47;61.20;;;34.03;;
10469;SDS011;5282;47.052;15.458;2022-10-16T06:12:14;82.77;;;34.23;;
10469;SDS011;5282;47.052;15.458;2022-10-16T06:14:43;46.47;;;33.13;;
10469;SDS011;5282;47.052;15.458;2022-10-16T06:17:12;63.20;;;34.63;;
10469;SDS011;5282;47.052;15.458;2022-10-16T06:19:39;49.03;;;33.43;;
10469;SDS011;5282;47.052;15.458;2022-10-16T06:22:06;39.67;;;34.63;;
10469;SDS011;5282;47.052;15.458;2022-10-16T06:24:33;116.67;;;34.13;;
10469;SDS011;5282;47.052;15.458;2022-10-16T06:27:00;124.83;;;32.37;;
10469;SDS011;5282;47.052;15.458;2022-10-16T06:29:27;186.10;;;33.40;;
10469;SDS011;5282;47.052;15.458;2022-10-16T06:31:55;48.13;;;32.40;;
10469;SDS011;5282;47.052;15.458;2022-10-16T06:34:22;70.10;;;31.73;;
10469;SDS011;5282;47.052;15.458;2022-10-16T06:36:49;76.33;;;31.70;;
10469;SDS011;5282;47.052;15.458;2022-10-16T06:39:15;72.43;;;31.73;;
10469;SDS011;5282;47.052;15.458;2022-10-16T06:41:42;36.23;;;32.27;;
10469;SDS011;5282;47.052;15.458;2022-10-16T06:44:09;34.23;;;30.73;;
10469;SDS011;5282;47.052;15.458;2022-10-16T06:46:36;41.77;;;31.57;;
10469;SDS011;5282;47.052;15.458;2022-10-16T06:49:04;48.97;;;32.53;;
10469;SDS011;5282;47.052;15.458;2022-10-16T06:51:31;42.33;;;30.20;;
10469;SDS011;5282;47.052;15.458;2022-10-16T06:53:59;40.37;;;31.37;;
10469;SDS011;5282;47.052;15.458;2022-10-16T06:56:27;36.20;;;30.97;;
10469;SDS011;5282;47.052;15.458;2022-10-16T06:58:55;31.40;;;28.00;;
10469;SDS011;5282;47.052;15.458;2022-10-16T07:01:23;33.33;;;28.57;;
10469;SDS011;5282;47.052;15.458;2022-10-16T07:03:50;31.93;;;28.63;;
10469;SDS011;5282;47.052;15.458;2022-10-16T07:06:20;32.53;;;28.50;;
10469;SDS011;5282;47.052;15.458;2022-10-16T07:08:48;34.93;;;31.23;;
10469;SDS011;5282;47.052;15.458;2022-10-16T07:11:16;35.90;;;28.80;;
10469;SDS011;5282;47.052;15.458;2022-10-16T07:13:45;35.70;;;30.40;;
10469;SDS011;5282;47.052;15.458;2022-10-16T07:16:13;33.00;;;29.60;;
10469;SDS011;5282;47.052;15.458;2022-10-16T07:18:43;33.73;;;30.00;;
10469;SDS011;5282;47.052;15.458;2022-10-16T07:21:12;34.90;;;31.10;;
10469;SDS011;5282;47.052;15.458;2022-10-16T07:23:42;33.47;;;29.97;;
10469;SDS011;5282;47.052;15.458;2022-10-16T07:26:09;33.47;;;30.10;;
10469;SDS011;5282;47.052;15.458;2022-10-16T07:28:37;33.50;;;30.10;;
10469;SDS011;5282;47.052;15.458;2022-10-16T07:31:05;32.00;;;28.80;;
10469;SDS011;5282;47.052;15.458;2022-10-16T07:33:36;33.47;;;30.03;;
10469;SDS011;5282;47.052;15.458;2022-10-16T07:36:04;36.20;;;32.40;;
10469;SDS011;5282;47.052;15.458;2022-10-16T07:38:31;36.77;;;32.83;;
10469;SDS011;5282;47.052;15.458;2022-10-16T07:41:00;35.73;;;31.33;;
10469;SDS011;5282;47.052;15.458;2022-10-16T07:43:29;36.50;;;32.67;;
10469;SDS011;5282;47.052;15.458;2022-10-16T07:45:56;36.00;;;32.00;;
10469;SDS011;5282;47.052;15.458;2022-10-16T07:48:28;36.73;;;32.83;;
10469;SDS011;5282;47.052;15.458;2022-10-16T07:50:56;36.43;;;32.67;;
10469;SDS011;5282;47.052;15.458;2022-10-16T07:53:24;37.37;;;32.93;;
10469;SDS011;5282;47.052;15.458;2022-10-16T07:55:51;35.73;;;32.03;;
10469;SDS011;5282;47.052;15.458;2022-10-16T07:58:20;35.27;;;31.67;;
10469;SDS011;5282;47.052;15.458;2022-10-16T08:00:49;35.47;;;31.77;;
10469;SDS011;5282;47.052;15.458;2022-10-16T08:03:16;34.03;;;30.47;;
10469;SDS011;5282;47.052;15.458;2022-10-16T08:05:43;33.57;;;30.07;;
10469;SDS011;5282;47.052;15.458;2022-10-16T08:08:11;33.60;;;30.20;;
10469;SDS011;5282;47.052;15.458;2022-10-16T08:10:40;33.57;;;30.17;;
10469;SDS011;5282;47.052;15.458;2022-10-16T08:13:07;35.00;;;31.47;;
10469;SDS011;5282;47.052;15.458;2022-10-16T08:15:35;34.67;;;31.13;;
10469;SDS011;5282;47.052;15.458;2022-10-16T08:18:03;35.10;;;31.50;;
10469;SDS011;5282;47.052;15.458;2022-10-16T08:20:32;36.30;;;32.50;;
10469;SDS011;5282;47.052;15.458;2022-10-16T08:22:59;37.37;;;33.47;;
10469;SDS011;5282;47.052;15.458;2022-10-16T08:25:27;34.13;;;30.43;;
10469;SDS011;5282;47.052;15.458;2022-10-16T08:27:54;36.67;;;32.97;;
10469;SDS011;5282;47.052;15.458;2022-10-16T08:30:22;37.37;;;33.30;;
10469;SDS011;5282;47.052;15.458;2022-10-16T08:32:52;34.97;;;31.33;;
10469;SDS011;5282;47.052;15.458;2022-10-16T08:35:19;34.23;;;30.83;;
10469;SDS011;5282;47.052;15.458;2022-10-16T08:37:46;35.13;;;31.37;;
10469;SDS011;5282;47.052;15.458;2022-10-16T08:40:16;34.10;;;30.57;;
10469;SDS011;5282;47.052;15.458;2022-10-16T08:42:49;33.33;;;30.03;;
10469;SDS011;5282;47.052;15.458;2022-10-16T08:45:32;32.60;;;29.33;;
10469;SDS011;5282;47.052;15.458;2022-10-16T08:48:08;33.30;;;29.73;;
10469;SDS011;5282;47.052;15.458;2022-10-16T08:50:43;32.73;;;29.43;;
10469;SDS011;5282;47.052;15.458;2022-10-16T08:53:13;32.37;;;29.20;;
10469;SDS011;5282;47.052;15.458;2022-10-16T08:55:48;30.73;;;27.73;;
10469;SDS011;5282;47.052;15.458;2022-10-16T08:58:17;32.80;;;29.50;;
10469;SDS011;5282;47.052;15.458;2022-10-16T09:00:46;31.23;;;27.97;;
10469;SDS011;5282;47.052;15.458;2022-10-16T09:03:22;31.67;;;28.57;;
10469;SDS011;5282;47.052;15.458;2022-10-16T09:06:07;30.67;;;27.47;;
10469;SDS011;5282;47.052;15.458;2022-10-16T09:08:45;33.13;;;28.93;;
10469;SDS011;5282;47.052;15.458;2022-10-16T09:11:21;29.87;;;26.90;;
10469;SDS011;5282;47.052;15.458;2022-10-16T09:13:57;29.70;;;26.50;;
10469;SDS011;5282;47.052;15.458;2022-10-16T09:16:33;30.00;;;27.10;;
10469;SDS011;5282;47.052;15.458;2022-10-16T09:19:09;27.13;;;24.53;;
10469;SDS011;5282;47.052;15.458;2022-10-16T09:21:43;27.93;;;25.13;;
10469;SDS011;5282;47.052;15.458;2022-10-16T09:24:13;28.03;;;25.13;;
10469;SDS011;5282;47.052;15.458;2022-10-16T09:26:42;29.17;;;26.27;;
10469;SDS011;5282;47.052;15.458;2022-10-16T09:29:10;28.53;;;25.83;;
10469;SDS011;5282;47.052;15.458;2022-10-16T09:31:38;28.77;;;25.87;;
10469;SDS011;5282;47.052;15.458;2022-10-16T09:34:20;28.03;;;25.23;;
10469;SDS011;5282;47.052;15.458;2022-10-16T09:36:54;25.87;;;23.37;;
10469;SDS011;5282;47.052;15.458;2022-10-16T09:39:26;26.07;;;23.60;;
10469;SDS011;5282;47.052;15.458;2022-10-16T09:41:53;26.07;;;23.57;;
10469;SDS011;5282;47.052;15.458;2022-10-16T09:44:23;25.33;;;22.77;;
10469;SDS011;5282;47.052;15.458;2022-10-16T09:47:00;26.80;;;24.30;;
10469;SDS011;5282;47.052;15.458;2022-10-16T09:49:30;24.30;;;21.93;;
10469;SDS011;5282;47.052;15.458;2022-10-16T09:52:03;24.73;;;22.43;;
10469;SDS011;5282;47.052;15.458;2022-10-16T09:54:31;24.17;;;21.83;;
10469;SDS011;5282;47.052;15.458;2022-10-16T09:57:05;25.10;;;22.63;;
10469;SDS011;5282;47.052;15.458;2022-10-16T09:59:32;24.20;;;21.90;;
10469;SDS011;5282;47.052;15.458;2022-10-16T10:02:01;22.97;;;20.87;;
10469;SDS011;5282;47.052;15.458;2022-10-16T10:04:38;26.10;;;22.20;;
10469;SDS011;5282;47.052;15.458;2022-10-16T10:07:15;23.40;;;21.20;;
10469;SDS011;5282;47.052;15.458;2022-10-16T10:09:45;23.57;;;21.27;;
10469;SDS011;5282;47.052;15.458;2022-10-16T10:12:17;25.17;;;21.63;;
10469;SDS011;5282;47.052;15.458;2022-10-16T10:14:46;22.27;;;20.37;;
10469;SDS011;5282;47.052;15.458;2022-10-16T10:17:15;27.60;;;22.13;;
10469;SDS011;5282;47.052;15.458;2022-10-16T10:19:46;22.77;;;20.67;;
10469;SDS011;5282;47.052;15.458;2022-10-16T10:22:20;22.17;;;19.97;;
10469;SDS011;5282;47.052;15.458;2022-10-16T10:24:56;22.93;;;20.80;;
10469;SDS011;5282;47.052;15.458;2022-10-16T10:27:30;22.67;;;20.77;;
10469;SDS011;5282;47.052;15.458;2022-10-16T10:30:05;22.90;;;20.70;;
10469;SDS011;5282;47.052;15.458;2022-10-16T10:32:45;22.90;;;20.77;;
10469;SDS011;5282;47.052;15.458;2022-10-16T10:35:24;20.83;;;19.13;;
10469;SDS011;5282;47.052;15.458;2022-10-16T10:38:07;21.63;;;19.63;;
10469;SDS011;5282;47.052;15.458;2022-10-16T10:40:49;21.70;;;19.87;;
10469;SDS011;5282;47.052;15.458;2022-10-16T10:43:25;20.50;;;18.47;;
10469;SDS011;5282;47.052;15.458;2022-10-16T10:46:06;18.70;;;17.20;;
10469;SDS011;5282;47.052;15.458;2022-10-16T10:48:47;18.90;;;17.17;;
10469;SDS011;5282;47.052;15.458;2022-10-16T10:51:27;20.03;;;18.00;;
10469;SDS011;5282;47.052;15.458;2022-10-16T10:54:02;18.97;;;17.33;;
10469;SDS011;5282;47.052;15.458;2022-10-16T10:56:41;20.60;;;18.77;;
10469;SDS011;5282;47.052;15.458;2022-10-16T10:59:28;19.30;;;17.63;;
10469;SDS011;5282;47.052;15.458;2022-10-16T11:02:13;18.27;;;16.70;;
10469;SDS011;5282;47.052;15.458;2022-10-16T11:04:55;18.83;;;17.33;;
10469;SDS011;5282;47.052;15.458;2022-10-16T11:07:39;19.83;;;18.03;;
10469;SDS011;5282;47.052;15.458;2022-10-16T11:10:12;18.80;;;17.13;;
10469;SDS011;5282;47.052;15.458;2022-10-16T11:12:44;18.33;;;16.83;;
10469;SDS011;5282;47.052;15.458;2022-10-16T11:15:15;16.83;;;15.53;;
10469;SDS011;5282;47.052;15.458;2022-10-16T11:17:48;17.83;;;16.47;;
10469;SDS011;5282;47.052;15.458;2022-10-16T11:20:19;17.90;;;16.40;;
10469;SDS011;5282;47.052;15.458;2022-10-16T11:22:51;16.97;;;15.53;;
10469;SDS011;5282;47.052;15.458;2022-10-16T11:25:23;17.47;;;16.17;;
10469;SDS011;5282;47.052;15.458;2022-10-16T11:27:56;17.30;;;16.03;;
10469;SDS011;5282;47.052;15.458;2022-10-16T11:30:28;16.40;;;15.00;;
10469;SDS011;5282;47.052;15.458;2022-10-16T11:33:00;16.97;;;15.47;;
10469;SDS011;5282;47.052;15.458;2022-10-16T11:35:42;17.23;;;15.93;;
10469;SDS011;5282;47.052;15.458;2022-10-16T11:38:17;17.57;;;15.87;;
10469;SDS011;5282;47.052;15.458;2022-10-16T11:40:50;17.50;;;15.93;;
10469;SDS011;5282;47.052;15.458;2022-10-16T11:43:24;17.00;;;15.50;;
10469;SDS011;5282;47.052;15.458;2022-10-16T11:45:57;16.30;;;15.00;;
10469;SDS011;5282;47.052;15.458;2022-10-16T11:48:31;16.63;;;15.23;;
10469;SDS011;5282;47.052;15.458;2022-10-16T11:51:06;15.17;;;13.97;;
10469;SDS011;5282;47.052;15.458;2022-10-16T11:53:44;16.30;;;14.80;;
10469;SDS011;5282;47.052;15.458;2022-10-16T11:56:20;15.50;;;14.20;;
10469;SDS011;5282;47.052;15.458;2022-10-16T11:58:50;15.83;;;14.63;;
10469;SDS011;5282;47.052;15.458;2022-10-16T12:01:25;15.00;;;13.90;;
10469;SDS011;5282;47.052;15.458;2022-10-16T12:04:06;14.47;;;13.47;;
10469;SDS011;5282;47.052;15.458;2022-10-16T12:06:44;15.67;;;14.33;;
10469;SDS011;5282;47.052;15.458;2022-10-16T12:09:17;15.37;;;14.13;;
10469;SDS011;5282;47.052;15.458;2022-10-16T12:11:49;15.63;;;14.17;;
10469;SDS011;5282;47.052;15.458;2022-10-16T12:14:20;14.63;;;13.50;;
10469;SDS011;5282;47.052;15.458;2022-10-16T12:16:59;15.27;;;14.03;;
10469;SDS011;5282;47.052;15.458;2022-10-16T12:19:31;16.00;;;14.70;;
10469;SDS011;5282;47.052;15.458;2022-10-16T12:21:59;15.03;;;13.83;;
10469;SDS011;5282;47.052;15.458;2022-10-16T12:24:35;14.57;;;13.47;;
10469;SDS011;5282;47.052;15.458;2022-10-16T12:27:04;15.60;;;14.33;;
10469;SDS011;5282;47.052;15.458;2022-10-16T12:29:45;16.43;;;14.97;;
10469;SDS011;5282;47.052;15.458;2022-10-16T12:32:25;16.03;;;14.73;;
10469;SDS011;5282;47.052;15.458;2022-10-16T12:34:56;16.10;;;14.80;;
10469;SDS011;5282;47.052;15.458;2022-10-16T12:37:27;16.13;;;14.93;;
10469;SDS011;5282;47.052;15.458;2022-10-16T12:40:10;16.77;;;15.37;;
10469;SDS011;5282;47.052;15.458;2022-10-16T12:42:39;16.53;;;14.90;;
10469;SDS011;5282;47.052;15.458;2022-10-16T12:45:21;16.93;;;15.20;;
10469;SDS011;5282;47.052;15.458;2022-10-16T12:47:52;16.10;;;14.90;;
10469;SDS011;5282;47.052;15.458;2022-10-16T12:50:28;17.73;;;16.33;;
10469;SDS011;5282;47.052;15.458;2022-10-16T12:52:59;17.00;;;15.77;;
10469;SDS011;5282;47.052;15.458;2022-10-16T12:55:30;16.77;;;15.47;;
10469;SDS011;5282;47.052;15.458;2022-10-16T12:58:14;16.27;;;14.77;;
10469;SDS011;5282;47.052;15.458;2022-10-16T13:00:55;17.17;;;15.83;;
10469;SDS011;5282;47.052;15.458;2022-10-16T13:06:30;16.30;;;14.80;;
10469;SDS011;5282;47.052;15.458;2022-10-16T13:09:12;16.13;;;14.73;;
10469;SDS011;5282;47.052;15.458;2022-10-16T13:11:54;16.87;;;15.57;;
10469;SDS011;5282;47.052;15.458;2022-10-16T13:14:42;15.50;;;14.23;;
10469;SDS011;5282;47.052;15.458;2022-10-16T13:17:23;15.23;;;13.87;;
10469;SDS011;5282;47.052;15.458;2022-10-16T13:19:59;15.27;;;13.97;;
10469;SDS011;5282;47.052;15.458;2022-10-16T13:22:34;16.03;;;14.63;;
10469;SDS011;5282;47.052;15.458;2022-10-16T13:25:17;14.63;;;13.50;;
10469;SDS011;5282;47.052;15.458;2022-10-16T13:27:56;15.90;;;14.60;;
10469;SDS011;5282;47.052;15.458;2022-10-16T13:30:31;15.60;;;14.27;;
10469;SDS011;5282;47.052;15.458;2022-10-16T13:33:02;16.17;;;14.77;;
10469;SDS011;5282;47.052;15.458;2022-10-16T13:35:33;15.80;;;14.20;;
10469;SDS011;5282;47.052;15.458;2022-10-16T13:38:05;15.93;;;14.53;;
10469;SDS011;5282;47.052;15.458;2022-10-16T13:40:47;15.80;;;14.50;;
10469;SDS011;5282;47.052;15.458;2022-10-16T13:43:18;16.03;;;14.70;;
10469;SDS011;5282;47.052;15.458;2022-10-16T13:45:53;17.30;;;15.70;;
10469;SDS011;5282;47.052;15.458;2022-10-16T13:48:24;16.53;;;15.17;;
10469;SDS011;5282;47.052;15.458;2022-10-16T13:51:02;18.40;;;16.90;;
10469;SDS011;5282;47.052;15.458;2022-10-16T13:53:32;16.37;;;15.10;;
10469;SDS011;5282;47.052;15.458;2022-10-16T13:56:00;16.30;;;15.07;;
10469;SDS011;5282;47.052;15.458;2022-10-16T13:58:30;16.97;;;15.47;;
10469;SDS011;5282;47.052;15.458;2022-10-16T14:00:58;16.70;;;15.47;;
10469;SDS011;5282;47.052;15.458;2022-10-16T14:03:26;17.23;;;15.63;;
10469;SDS011;5282;47.052;15.458;2022-10-16T14:05:55;17.23;;;15.93;;
10469;SDS011;5282;47.052;15.458;2022-10-16T14:08:25;15.83;;;14.43;;
10469;SDS011;5282;47.052;15.458;2022-10-16T14:10:55;16.07;;;14.57;;
10469;SDS011;5282;47.052;15.458;2022-10-16T14:13:29;16.37;;;15.03;;
10469;SDS011;5282;47.052;15.458;2022-10-16T14:16:02;16.47;;;15.07;;
10469;SDS011;5282;47.052;15.458;2022-10-16T14:18:33;16.93;;;15.53;;
10469;SDS011;5282;47.052;15.458;2022-10-16T14:21:04;16.87;;;15.40;;
10469;SDS011;5282;47.052;15.458;2022-10-16T14:23:33;16.60;;;15.33;;
10469;SDS011;5282;47.052;15.458;2022-10-16T14:29:01;16.87;;;15.30;;
10469;SDS011;5282;47.052;15.458;2022-10-16T14:31:36;16.23;;;14.90;;
10469;SDS011;5282;47.052;15.458;2022-10-16T14:34:22;17.13;;;15.60;;
10469;SDS011;5282;47.052;15.458;2022-10-16T14:36:52;17.10;;;15.60;;
10469;SDS011;5282;47.052;15.458;2022-10-16T14:39:20;17.23;;;15.70;;
10469;SDS011;5282;47.052;15.458;2022-10-16T14:41:50;18.03;;;16.47;;
10469;SDS011;5282;47.052;15.458;2022-10-16T14:44:21;19.20;;;17.60;;
10469;SDS011;5282;47.052;15.458;2022-10-16T14:46:53;18.43;;;16.83;;